Time;durP1;ratioP1;P1;durP2;ratioP2;P2;SDS_P1;SDS_P2;PMS_P1;PMS_P2;Temp;Humidity;BMP_temperature;BMP_pressure;BME280_temperature;BME280_humidity;BME280_pressure;Samples;Min_cycle;Max_cycle;Signal;HPM_P1;HPM_P2
2023/09/04 00:00:27;;;;;;;4.90;2.83;;;15.40;99.90;;;;;;5064475;28;20049;-65
2023/09/04 00:02:54;;;;;;;5.53;2.53;;;15.50;99.90;;;;;;5069105;28;20132;-65
2023/09/04 00:05:21;;;;;;;4.65;3.13;;;15.50;99.90;;;;;;5058945;28;20045;-66
2023/09/04 00:07:49;;;;;;;5.28;2.63;;;15.50;99.90;;;;;;5049934;28;20045;-66
2023/09/04 00:10:15;;;;;;;4.25;2.95;;;15.50;99.90;;;;;;5050680;28;20048;-66
2023/09/04 00:12:42;;;;;;;3.13;2.58;;;15.40;99.90;;;;;;5052584;28;20072;-66
2023/09/04 00:15:09;;;;;;;4.63;3.05;;;15.40;99.90;;;;;;5064275;28;20544;-66
2023/09/04 00:17:36;;;;;;;2.72;2.50;;;15.40;99.90;;;;;;5068475;28;20048;-66
2023/09/04 00:20:03;;;;;;;3.83;2.75;;;15.30;99.90;;;;;;5052958;28;20485;-66
2023/09/04 00:22:30;;;;;;;7.50;2.60;;;15.30;99.90;;;;;;5051162;28;20067;-66
2023/09/04 00:24:56;;;;;;;4.70;2.80;;;15.30;99.90;;;;;;5058783;28;20043;-66
2023/09/04 00:27:23;;;;;;;3.75;2.88;;;15.30;99.90;;;;;;5060652;28;20440;-66
2023/09/04 00:29:50;;;;;;;4.05;2.70;;;15.40;99.90;;;;;;5057356;28;20052;-66
2023/09/04 00:32:17;;;;;;;4.95;2.28;;;15.40;99.90;;;;;;5049235;28;20058;-66
2023/09/04 00:34:43;;;;;;;4.28;2.58;;;15.40;99.90;;;;;;5060995;28;20064;-66
2023/09/04 00:37:10;;;;;;;4.20;2.45;;;15.40;99.90;;;;;;5052565;28;20441;-66
2023/09/04 00:39:37;;;;;;;5.50;2.65;;;15.50;99.90;;;;;;5055827;28;20052;-66
2023/09/04 00:42:04;;;;;;;8.50;2.75;;;15.50;99.90;;;;;;5056582;28;20044;-66
2023/09/04 00:44:31;;;;;;;15.93;3.10;;;15.50;99.90;;;;;;5055431;28;20036;-66
2023/09/04 00:46:59;;;;;;;4.15;2.70;;;15.50;99.90;;;;;;5066526;28;20392;-66
2023/09/04 00:49:27;;;;;;;5.50;2.60;;;15.40;99.90;;;;;;5054497;28;20421;-66
2023/09/04 00:51:55;;;;;;;3.92;3.00;;;15.30;99.90;;;;;;5054653;28;20045;-66
2023/09/04 00:54:23;;;;;;;7.22;2.85;;;15.10;99.90;;;;;;5044485;28;20041;-66
2023/09/04 00:56:51;;;;;;;5.78;3.28;;;15.10;99.90;;;;;;5056215;28;20485;-66
2023/09/04 00:59:18;;;;;;;6.70;3.22;;;15.00;99.90;;;;;;5038870;28;20044;-66
2023/09/04 01:01:45;;;;;;;6.72;3.28;;;15.00;99.90;;;;;;5054320;28;20029;-64
2023/09/04 01:04:12;;;;;;;6.57;3.50;;;14.90;99.90;;;;;;5052091;28;20119;-65
2023/09/04 01:06:39;;;;;;;3.67;3.38;;;14.90;99.90;;;;;;5062843;28;20397;-66
2023/09/04 01:09:08;;;;;;;5.32;3.05;;;14.90;99.90;;;;;;5036111;28;20041;-66
2023/09/04 01:11:40;;;;;;;4.70;3.00;;;14.80;99.90;;;;;;5040946;28;20493;-66
2023/09/04 01:14:19;;;;;;;3.53;2.80;;;14.90;99.90;;;;;;5036483;28;20048;-66
2023/09/04 01:16:47;;;;;;;3.90;2.70;;;14.90;99.90;;;;;;5054880;28;20111;-66
2023/09/04 01:19:16;;;;;;;4.35;3.17;;;15.00;99.90;;;;;;5048103;28;20041;-66
2023/09/04 01:21:43;;;;;;;7.43;3.10;;;14.90;99.90;;;;;;5046333;28;20075;-66
2023/09/04 01:24:11;;;;;;;4.38;2.90;;;15.00;99.90;;;;;;5041112;28;20064;-66
2023/09/04 01:27:01;;;;;;;3.78;3.40;;;15.00;99.90;;;;;;5052497;28;20041;-66
2023/09/04 01:29:47;;;;;;;3.75;3.30;;;14.90;99.90;;;;;;5071163;28;20478;-66
2023/09/04 01:32:29;;;;;;;4.25;2.95;;;14.90;99.90;;;;;;5039995;28;20041;-66
2023/09/04 01:34:59;;;;;;;5.22;2.65;;;14.90;99.90;;;;;;5049093;28;20571;-66
2023/09/04 01:37:26;;;;;;;4.18;2.72;;;14.80;99.90;;;;;;5071904;28;20389;-65
2023/09/04 01:39:54;;;;;;;3.15;2.47;;;14.80;99.90;;;;;;5046676;28;20033;-66
2023/09/04 01:42:21;;;;;;;5.65;3.20;;;14.80;99.90;;;;;;5038206;28;20033;-66
2023/09/04 01:44:47;;;;;;;4.20;2.90;;;14.90;99.90;;;;;;5059789;28;20041;-66
2023/09/04 01:47:14;;;;;;;4.00;3.05;;;14.90;99.90;;;;;;5050002;28;20040;-66
2023/09/04 01:49:42;;;;;;;4.88;2.72;;;14.90;99.90;;;;;;5043829;28;20059;-65
2023/09/04 01:52:13;;;;;;;4.03;2.47;;;14.90;99.90;;;;;;5042285;28;20226;-66
2023/09/04 01:54:40;;;;;;;4.25;3.15;;;14.90;99.90;;;;;;5053902;28;20054;-66
2023/09/04 01:57:07;;;;;;;4.70;2.90;;;15.00;99.90;;;;;;5048120;28;20049;-66
2023/09/04 01:59:34;;;;;;;4.85;2.85;;;15.00;99.90;;;;;;5042203;28;20045;-66
2023/09/04 02:02:01;;;;;;;3.53;2.83;;;15.00;99.90;;;;;;5043237;28;20095;-66
2023/09/04 02:04:31;;;;;;;3.67;2.30;;;15.00;99.90;;;;;;5037683;28;20044;-66
2023/09/04 02:06:58;;;;;;;3.20;2.88;;;15.00;99.90;;;;;;5053191;28;20044;-66
2023/09/04 02:09:25;;;;;;;4.55;2.55;;;15.00;99.90;;;;;;5042766;28;20068;-66
2023/09/04 02:11:52;;;;;;;4.05;2.90;;;15.10;99.90;;;;;;5052866;28;20573;-66
2023/09/04 02:14:19;;;;;;;6.82;2.67;;;15.10;99.90;;;;;;5060278;28;20064;-66
2023/09/04 02:16:46;;;;;;;2.90;2.60;;;15.10;99.90;;;;;;5043233;28;20047;-66
2023/09/04 02:19:13;;;;;;;5.80;3.00;;;15.10;99.90;;;;;;5049550;28;20051;-66
2023/09/04 02:21:40;;;;;;;;;;;15.10;99.90;;;;;;5038450;28;20047;-66
2023/09/04 02:24:07;;;;;;;3.67;2.60;;;15.10;99.90;;;;;;5054045;28;20373;-66
2023/09/04 02:26:34;;;;;;;3.67;2.58;;;15.00;99.90;;;;;;5059123;28;20043;-66
2023/09/04 02:29:01;;;;;;;;;;;14.90;99.90;;;;;;5034897;28;20033;-66
2023/09/04 02:31:28;;;;;;;5.28;3.38;;;14.70;99.90;;;;;;5052891;28;20395;-65
2023/09/04 02:33:55;;;;;;;7.50;3.13;;;14.60;99.90;;;;;;5072533;28;20114;-65
2023/09/04 02:36:23;;;;;;;4.85;3.15;;;14.50;99.90;;;;;;5041736;28;20072;-66
2023/09/04 02:38:50;;;;;;;5.10;3.40;;;14.40;99.90;;;;;;5050684;28;20721;-65
2023/09/04 02:41:16;;;;;;;7.13;4.10;;;14.40;99.90;;;;;;5033511;28;20478;-66
2023/09/04 02:43:43;;;;;;;4.68;3.78;;;14.40;99.90;;;;;;5051264;28;20045;-66
2023/09/04 02:46:10;;;;;;;6.15;3.65;;;14.40;99.90;;;;;;5053215;28;20095;-66
2023/09/04 02:48:38;;;;;;;3.42;3.13;;;14.40;99.90;;;;;;5071443;28;20086;-65
2023/09/04 02:51:07;;;;;;;4.65;3.35;;;14.30;99.90;;;;;;5045552;28;20117;-66
2023/09/04 02:53:34;;;;;;;9.48;3.25;;;14.30;99.90;;;;;;5062202;28;20115;-66
2023/09/04 02:56:01;;;;;;;5.95;2.95;;;14.30;99.90;;;;;;5038440;28;20045;-66
2023/09/04 02:58:28;;;;;;;10.15;3.33;;;14.20;99.90;;;;;;5050037;28;20044;-66
2023/09/04 03:00:56;;;;;;;7.60;3.35;;;14.20;99.90;;;;;;5054909;28;20033;-66
2023/09/04 03:03:23;;;;;;;7.25;3.20;;;14.10;99.90;;;;;;5039177;28;20037;-66
2023/09/04 03:05:50;;;;;;;5.07;3.80;;;14.10;99.90;;;;;;5041106;28;20041;-66
2023/09/04 03:08:16;;;;;;;4.80;3.72;;;14.10;99.90;;;;;;5051435;28;20033;-65
2023/09/04 03:10:43;;;;;;;6.50;3.65;;;14.10;99.90;;;;;;5032740;28;20474;-66
2023/09/04 03:13:10;;;;;;;5.93;3.50;;;14.10;99.90;;;;;;5035560;28;20063;-65
2023/09/04 03:15:37;;;;;;;5.55;3.03;;;14.10;99.90;;;;;;5053643;28;20059;-66
2023/09/04 03:18:05;;;;;;;;;;;14.10;99.90;;;;;;5040821;28;20036;-66
2023/09/04 03:20:33;;;;;;;3.97;3.00;;;14.10;99.90;;;;;;5051436;28;19920;-66
2023/09/04 03:23:00;;;;;;;5.40;3.28;;;14.10;99.90;;;;;;5035150;28;20147;-65
2023/09/04 03:25:27;;;;;;;4.35;3.05;;;14.10;99.90;;;;;;5063437;28;20033;-66
2023/09/04 03:27:55;;;;;;;7.93;3.03;;;14.10;99.90;;;;;;5041698;28;20037;-66
2023/09/04 03:30:22;;;;;;;3.83;2.78;;;14.10;99.90;;;;;;5033315;28;20557;-65
2023/09/04 03:32:49;;;;;;;3.25;2.85;;;14.10;99.90;;;;;;5061667;28;20048;-66
2023/09/04 03:35:17;;;;;;;6.43;2.78;;;14.10;99.90;;;;;;5065364;28;20043;-66
2023/09/04 03:37:44;;;;;;;4.88;3.30;;;14.00;99.90;;;;;;5037817;28;20048;-66
2023/09/04 03:40:24;;;;;;;5.65;3.10;;;14.00;99.90;;;;;;5046838;28;20482;-65
2023/09/04 03:42:52;;;;;;;6.05;3.10;;;14.00;99.90;;;;;;5049987;28;20072;-66
2023/09/04 03:45:19;;;;;;;5.60;2.90;;;14.00;99.90;;;;;;5062631;28;20040;-66
2023/09/04 03:47:48;;;;;;;4.43;2.85;;;14.00;99.90;;;;;;5051542;28;20079;-66
2023/09/04 03:50:16;;;;;;;5.32;3.25;;;14.00;99.90;;;;;;5067393;28;20478;-66
2023/09/04 03:52:43;;;;;;;3.40;2.78;;;14.00;99.90;;;;;;5033274;28;20056;-66
2023/09/04 03:55:11;;;;;;;4.72;3.15;;;14.00;99.90;;;;;;5048395;28;20074;-66
2023/09/04 03:57:42;;;;;;;4.13;3.00;;;14.00;99.90;;;;;;5052784;28;20515;-66
2023/09/04 04:00:14;;;;;;;6.45;3.10;;;14.10;99.90;;;;;;5048936;28;20041;-66
2023/09/04 04:02:45;;;;;;;5.85;2.90;;;14.10;99.90;;;;;;5063791;28;20032;-65
2023/09/04 04:05:13;;;;;;;7.53;3.10;;;14.10;99.90;;;;;;5048862;28;20128;-66
2023/09/04 04:07:42;;;;;;;3.70;2.78;;;14.10;99.90;;;;;;5051796;28;20045;-66
2023/09/04 04:10:09;;;;;;;4.55;3.17;;;14.10;99.90;;;;;;5052049;28;20048;-66
2023/09/04 04:12:36;;;;;;;;;;;14.00;99.90;;;;;;5041409;28;20577;-66
2023/09/04 04:15:06;;;;;;;4.25;3.13;;;14.00;99.90;;;;;;5066672;28;19920;-66
2023/09/04 04:17:34;;;;;;;3.70;2.80;;;14.00;99.90;;;;;;5068218;28;20363;-66
2023/09/04 04:20:12;;;;;;;6.43;3.10;;;13.90;99.90;;;;;;5070589;28;20044;-66
2023/09/04 04:22:41;;;;;;;4.22;2.85;;;13.80;99.90;;;;;;5052300;28;20348;-64
2023/09/04 04:25:09;;;;;;;6.07;3.10;;;13.80;99.90;;;;;;5056720;28;20036;-66
2023/09/04 04:27:35;;;;;;;5.50;3.50;;;13.70;99.90;;;;;;5056158;28;20060;-66
2023/09/04 04:30:03;;;;;;;4.22;2.80;;;13.70;99.90;;;;;;5066736;28;20072;-66
2023/09/04 04:32:33;;;;;;;6.45;2.88;;;13.70;99.90;;;;;;5054956;28;20982;-66
2023/09/04 04:35:00;;;;;;;6.63;2.97;;;13.70;99.90;;;;;;5053820;28;20048;-66
2023/09/04 04:37:27;;;;;;;5.88;2.97;;;13.70;99.90;;;;;;5055441;28;20051;-66
2023/09/04 04:39:54;;;;;;;5.78;3.70;;;13.80;99.90;;;;;;5044193;28;20045;-66
2023/09/04 04:42:24;;;;;;;6.85;3.10;;;13.80;99.90;;;;;;5056354;28;21596;-64
2023/09/04 04:44:52;;;;;;;6.30;3.28;;;13.80;99.90;;;;;;5056017;28;20421;-65
2023/09/04 04:47:19;;;;;;;5.90;3.35;;;13.90;99.90;;;;;;5073576;28;20139;-65
2023/09/04 04:49:46;;;;;;;5.00;3.28;;;13.90;99.90;;;;;;5051650;28;20045;-66
2023/09/04 04:52:13;;;;;;;4.78;3.58;;;13.90;99.90;;;;;;5072275;28;20054;-66
2023/09/04 04:54:40;;;;;;;7.00;3.65;;;13.80;99.90;;;;;;5069733;28;20048;-66
2023/09/04 04:57:06;;;;;;;5.43;3.55;;;13.90;99.90;;;;;;5051814;28;20409;-66
2023/09/04 04:59:35;;;;;;;5.30;3.80;;;13.90;99.90;;;;;;5063081;28;20045;-66
2023/09/04 05:02:03;;;;;;;6.35;3.70;;;13.90;99.90;;;;;;5050561;28;20566;-66
2023/09/04 05:04:34;;;;;;;5.38;3.78;;;14.00;99.90;;;;;;5052889;28;20488;-66
2023/09/04 05:07:02;;;;;;;5.38;3.25;;;14.00;99.90;;;;;;5046737;28;20041;-66
2023/09/04 05:09:30;;;;;;;4.82;2.97;;;14.00;99.90;;;;;;5051910;28;20044;-66
2023/09/04 05:11:58;;;;;;;5.90;2.88;;;14.00;99.90;;;;;;5055451;28;20055;-66
2023/09/04 05:14:25;;;;;;;5.28;2.97;;;14.00;99.90;;;;;;5052250;28;20606;-66
2023/09/04 05:16:52;;;;;;;4.15;2.60;;;14.00;99.90;;;;;;5052279;28;20125;-66
2023/09/04 05:19:19;;;;;;;10.23;3.20;;;14.00;99.90;;;;;;5047747;28;20052;-65
2023/09/04 05:21:46;;;;;;;5.15;3.92;;;14.00;99.90;;;;;;5072824;28;20064;-66
2023/09/04 05:24:22;;;;;;;4.65;3.88;;;14.10;99.90;;;;;;5047758;28;20582;-67
2023/09/04 05:26:49;;;;;;;5.72;4.13;;;14.10;99.90;;;;;;5055078;28;20048;-66
2023/09/04 05:29:16;;;;;;;8.98;4.38;;;14.10;99.90;;;;;;5067616;28;20043;-64
2023/09/04 05:31:45;;;;;;;6.57;4.25;;;14.10;99.90;;;;;;5068198;28;20040;-66
2023/09/04 05:34:12;;;;;;;5.93;4.00;;;14.20;99.90;;;;;;5034307;28;20493;-64
2023/09/04 05:36:46;;;;;;;5.40;3.42;;;14.30;99.90;;;;;;5069424;28;20405;-66
2023/09/04 05:39:19;;;;;;;4.55;3.50;;;14.30;99.90;;;;;;5050607;28;20128;-63
2023/09/04 05:41:46;;;;;;;5.93;3.90;;;14.30;99.90;;;;;;5055869;28;20041;-66
2023/09/04 05:44:12;;;;;;;5.55;3.83;;;14.30;99.90;;;;;;5065975;28;20037;-65
2023/09/04 05:46:40;;;;;;;5.22;3.67;;;14.40;99.90;;;;;;5064914;28;20533;-66
2023/09/04 05:49:06;;;;;;;9.85;4.75;;;14.40;99.90;;;;;;5050932;28;20048;-65
2023/09/04 05:51:33;;;;;;;11.32;4.85;;;14.40;99.90;;;;;;5059240;28;20119;-65
2023/09/04 05:54:00;;;;;;;8.43;4.40;;;14.40;99.90;;;;;;5054362;28;20052;-63
2023/09/04 05:56:27;;;;;;;9.30;4.47;;;14.50;99.90;;;;;;5067056;28;20099;-64
2023/09/04 05:58:54;;;;;;;9.70;5.38;;;14.50;99.90;;;;;;5054162;28;20053;-65
2023/09/04 06:01:22;;;;;;;9.57;5.32;;;14.60;99.90;;;;;;5059573;28;20044;-65
2023/09/04 06:03:49;;;;;;;9.77;6.40;;;14.60;99.90;;;;;;5062333;28;20059;-65
2023/09/04 06:06:16;;;;;;;7.60;6.07;;;14.70;99.90;;;;;;5068723;28;20500;-65
2023/09/04 06:08:43;;;;;;;10.05;7.38;;;14.80;99.90;;;;;;5060808;28;20116;-65
2023/09/04 06:11:10;;;;;;;;;;;14.90;99.90;;;;;;5056403;28;20102;-65
2023/09/04 06:13:37;;;;;;;7.72;6.30;;;15.00;99.90;;;;;;5054108;28;19924;-65
2023/09/04 06:16:03;;;;;;;14.70;6.85;;;15.10;99.90;;;;;;5063254;28;20072;-65
2023/09/04 06:18:30;;;;;;;9.95;5.78;;;15.10;99.90;;;;;;5065330;28;20066;-64
2023/09/04 06:20:58;;;;;;;10.88;5.65;;;15.20;99.90;;;;;;5049009;28;20128;-65
2023/09/04 06:23:25;;;;;;;7.35;5.55;;;15.20;99.90;;;;;;5059841;28;20041;-64
2023/09/04 06:25:52;;;;;;;;;;;15.20;99.90;;;;;;5060015;28;20037;-64
2023/09/04 06:28:18;;;;;;;5.93;4.75;;;15.30;99.90;;;;;;5066929;28;19928;-65
2023/09/04 06:30:45;;;;;;;6.43;4.82;;;15.40;99.90;;;;;;5066821;28;20040;-65
2023/09/04 06:33:12;;;;;;;7.53;4.95;;;15.50;99.90;;;;;;5059485;28;20117;-65
2023/09/04 06:35:39;;;;;;;5.80;4.68;;;15.50;99.90;;;;;;5051869;28;20539;-65
2023/09/04 06:38:06;;;;;;;5.88;4.97;;;15.70;99.90;;;;;;5054075;28;20040;-65
2023/09/04 06:40:33;;;;;;;6.07;5.32;;;15.70;99.90;;;;;;5071636;28;20050;-65
2023/09/04 06:43:00;;;;;;;8.02;5.15;;;15.90;99.90;;;;;;5053268;28;20048;-65
2023/09/04 06:45:27;;;;;;;6.30;4.75;;;16.00;99.90;;;;;;5056951;28;20040;-64
2023/09/04 06:47:54;;;;;;;10.82;4.90;;;16.10;99.90;;;;;;5062549;28;20051;-65
2023/09/04 06:50:20;;;;;;;7.22;4.88;;;16.20;99.90;;;;;;5055315;28;20124;-65
2023/09/04 06:52:47;;;;;;;6.65;4.45;;;16.30;99.90;;;;;;5055687;28;20041;-64
2023/09/04 06:55:14;;;;;;;5.95;4.63;;;16.40;99.90;;;;;;5061387;28;20055;-65
2023/09/04 06:57:41;;;;;;;11.70;4.90;;;16.50;99.90;;;;;;5064725;28;20063;-65
2023/09/04 07:00:08;;;;;;;4.80;4.25;;;16.70;99.90;;;;;;5059203;28;20040;-65
2023/09/04 07:02:36;;;;;;;7.93;4.70;;;16.80;99.90;;;;;;5054557;28;20028;-65
2023/09/04 07:05:07;;;;;;;5.68;4.75;;;16.90;99.90;;;;;;5060035;28;20064;-65
2023/09/04 07:07:37;;;;;;;5.68;4.63;;;16.90;99.90;;;;;;5039577;28;20045;-65
2023/09/04 07:10:05;;;;;;;11.18;4.90;;;17.00;99.90;;;;;;5050874;28;20509;-64
2023/09/04 07:12:34;;;;;;;7.82;4.40;;;17.10;99.90;;;;;;5051441;28;20036;-65
2023/09/04 07:15:02;;;;;;;6.18;4.13;;;17.20;99.90;;;;;;5067432;28;20048;-65
2023/09/04 07:17:28;;;;;;;5.65;3.50;;;17.30;99.90;;;;;;5051117;28;20045;-65
2023/09/04 07:19:58;;;;;;;4.68;3.40;;;17.40;99.90;;;;;;5058955;28;20509;-65
2023/09/04 07:22:25;;;;;;;6.80;3.70;;;17.50;99.90;;;;;;5063871;28;20485;-65
2023/09/04 07:24:52;;;;;;;5.80;3.45;;;17.50;99.90;;;;;;5053272;28;20195;-64
2023/09/04 07:27:19;;;;;;;5.25;3.42;;;17.60;99.90;;;;;;5051427;28;20041;-65
2023/09/04 07:29:46;;;;;;;5.13;3.00;;;17.70;99.90;;;;;;5057903;28;20047;-65
2023/09/04 07:32:12;;;;;;;7.25;4.40;;;17.90;99.90;;;;;;5068492;28;20048;-65
2023/09/04 07:34:39;;;;;;;6.88;3.50;;;17.90;99.90;;;;;;5059125;28;20075;-65
2023/09/04 07:37:06;;;;;;;5.70;3.25;;;18.00;99.90;;;;;;5059569;28;20045;-65
2023/09/04 07:39:33;;;;;;;6.93;3.17;;;18.20;99.90;;;;;;5064943;28;20124;-65
2023/09/04 07:42:00;;;;;;;8.18;3.30;;;18.40;99.90;;;;;;5058312;28;20051;-65
2023/09/04 07:44:26;;;;;;;6.50;3.22;;;18.50;99.90;;;;;;5034893;28;20085;-65
2023/09/04 07:46:53;;;;;;;4.50;2.85;;;18.60;99.90;;;;;;5070515;28;20052;-64
2023/09/04 07:49:20;;;;;;;6.63;3.08;;;18.70;99.90;;;;;;5069962;28;20036;-65
2023/09/04 07:51:47;;;;;;;7.05;2.78;;;18.90;99.90;;;;;;5054954;28;20052;-65
2023/09/04 07:54:13;;;;;;;5.57;3.00;;;19.00;99.90;;;;;;5057735;28;20053;-65
2023/09/04 07:56:40;;;;;;;4.25;3.10;;;19.10;99.90;;;;;;5059104;28;20049;-65
2023/09/04 07:59:09;;;;;;;4.95;2.80;;;19.20;99.90;;;;;;5041293;28;20555;-65
2023/09/04 08:01:37;;;;;;;3.38;2.80;;;19.30;99.90;;;;;;5055888;28;20060;-65
2023/09/04 08:04:04;;;;;;;5.72;2.70;;;19.40;99.90;;;;;;5067046;28;20037;-63
2023/09/04 08:06:30;;;;;;;;;;;19.50;99.90;;;;;;5054897;28;20037;-65
2023/09/04 08:08:57;;;;;;;4.68;2.97;;;19.50;99.90;;;;;;5053681;28;19920;-65
2023/09/04 08:11:24;;;;;;;3.00;2.70;;;19.60;99.90;;;;;;5054257;28;20041;-65
2023/09/04 08:13:51;;;;;;;4.80;2.75;;;19.70;99.90;;;;;;5063119;28;20051;-64
2023/09/04 08:16:17;;;;;;;4.93;2.88;;;19.80;99.90;;;;;;5050543;28;20045;-65
2023/09/04 08:18:44;;;;;;;4.68;2.72;;;19.90;99.90;;;;;;5050215;28;20041;-65
2023/09/04 08:21:11;;;;;;;5.75;2.30;;;19.90;99.90;;;;;;5068770;28;20402;-64
2023/09/04 08:23:38;;;;;;;4.22;2.50;;;20.00;99.90;;;;;;5056232;28;20092;-65
2023/09/04 08:26:06;;;;;;;3.90;3.10;;;20.20;99.90;;;;;;5058724;28;20054;-65
2023/09/04 08:28:33;;;;;;;4.90;2.30;;;20.30;99.90;;;;;;5049519;28;20072;-65
2023/09/04 08:31:00;;;;;;;3.38;2.50;;;20.30;99.90;;;;;;5058717;28;20505;-65
2023/09/04 08:33:26;;;;;;;;;;;20.40;99.90;;;;;;5053169;28;20083;-65
2023/09/04 08:35:54;;;;;;;4.55;2.25;;;20.50;99.90;;;;;;5070306;28;19928;-65
2023/09/04 08:38:21;;;;;;;2.33;2.10;;;20.70;99.90;;;;;;5057940;28;20639;-65
2023/09/04 08:40:48;;;;;;;2.83;2.03;;;20.70;99.90;;;;;;5067942;28;20428;-65
2023/09/04 08:43:16;;;;;;;6.45;3.05;;;20.80;99.90;;;;;;5069877;28;20040;-65
2023/09/04 08:45:43;;;;;;;4.35;2.50;;;20.80;99.90;;;;;;5063636;28;20163;-65
2023/09/04 08:48:11;;;;;;;;;;;20.90;99.90;;;;;;5069925;28;20049;-65
2023/09/04 08:50:38;;;;;;;5.50;2.80;;;21.00;99.90;;;;;;5069714;28;19920;-65
2023/09/04 08:53:05;;;;;;;5.35;2.63;;;21.10;99.90;;;;;;5069948;28;20408;-65
2023/09/04 08:55:35;;;;;;;3.30;2.22;;;21.10;99.90;;;;;;5071144;28;20505;-65
2023/09/04 08:58:03;;;;;;;3.47;2.65;;;21.10;99.90;;;;;;5073785;28;20048;-65
2023/09/04 09:00:30;;;;;;;4.20;2.72;;;21.00;99.90;;;;;;5068767;28;20389;-65
2023/09/04 09:02:59;;;;;;;3.22;2.42;;;20.90;99.90;;;;;;5073471;28;20044;-65
2023/09/04 09:05:29;;;;;;;4.93;2.45;;;20.80;99.90;;;;;;5043164;28;20037;-65
2023/09/04 09:07:56;;;;;;;2.42;2.15;;;20.90;99.90;;;;;;5061161;28;20490;-65
2023/09/04 09:10:24;;;;;;;3.97;2.20;;;21.00;99.90;;;;;;5064638;28;20043;-65
2023/09/04 09:12:51;;;;;;;8.55;2.60;;;21.20;99.90;;;;;;5068537;28;20518;-65
2023/09/04 09:15:18;;;;;;;11.32;2.75;;;21.20;99.90;;;;;;5062403;28;20041;-65
2023/09/04 09:18:03;;;;;;;4.40;2.60;;;21.20;99.90;;;;;;5053008;28;20053;-65
2023/09/04 09:20:31;;;;;;;9.70;2.75;;;21.20;99.90;;;;;;5056544;28;20045;-65
2023/09/04 09:23:01;;;;;;;6.95;2.95;;;21.30;99.90;;;;;;5073478;28;20044;-65
2023/09/04 09:25:28;;;;;;;5.03;3.30;;;21.40;99.90;;;;;;5061129;28;20530;-65
2023/09/04 09:28:06;;;;;;;5.78;2.58;;;21.40;99.90;;;;;;5061793;28;20033;-65
2023/09/04 09:30:35;;;;;;;4.38;2.85;;;21.50;99.90;;;;;;5065105;28;20182;-65
2023/09/04 09:33:09;;;;;;;6.53;2.67;;;21.50;99.90;;;;;;5065718;28;20504;-65
2023/09/04 09:35:41;;;;;;;6.22;2.60;;;21.60;99.90;;;;;;5060546;28;20048;-65
2023/09/04 09:38:09;;;;;;;3.70;2.40;;;21.70;99.90;;;;;;5065987;28;20041;-65
2023/09/04 09:40:36;;;;;;;8.85;2.50;;;21.80;99.90;;;;;;5056660;28;20036;-65
2023/09/04 09:43:03;;;;;;;2.80;2.30;;;21.90;99.90;;;;;;5065383;28;20405;-65
2023/09/04 09:45:35;;;;;;;5.38;2.63;;;22.00;99.90;;;;;;5061774;28;20807;-66
2023/09/04 09:48:11;;;;;;;4.45;2.30;;;22.00;99.90;;;;;;5057119;28;20041;-65
2023/09/04 09:50:40;;;;;;;2.83;2.38;;;22.00;99.90;;;;;;5055754;28;20068;-65
2023/09/04 09:53:07;;;;;;;3.10;2.25;;;22.00;99.90;;;;;;5064420;28;20048;-65
2023/09/04 09:55:35;;;;;;;7.25;2.55;;;22.00;99.90;;;;;;5052958;28;20037;-66
2023/09/04 09:58:03;;;;;;;3.28;2.33;;;22.10;99.90;;;;;;5068641;28;20044;-65
2023/09/04 10:00:31;;;;;;;2.03;1.83;;;22.10;99.90;;;;;;5063652;28;20045;-66
2023/09/04 10:02:58;;;;;;;2.92;2.40;;;22.20;99.90;;;;;;5064334;28;20558;-65
2023/09/04 10:05:26;;;;;;;2.85;2.05;;;22.40;99.90;;;;;;5055132;28;20052;-66
2023/09/04 10:07:59;;;;;;;5.22;2.50;;;22.50;99.90;;;;;;5071754;28;20059;-66
2023/09/04 10:10:28;;;;;;;3.25;2.28;;;22.50;99.90;;;;;;5061081;28;20039;-65
2023/09/04 10:13:07;;;;;;;3.72;2.30;;;22.50;99.90;;;;;;5069976;28;20124;-65
2023/09/04 10:15:37;;;;;;;4.00;2.10;;;22.50;99.90;;;;;;5063180;28;20465;-66
2023/09/04 10:18:10;;;;;;;4.20;2.08;;;22.50;99.90;;;;;;5055675;28;20497;-65
2023/09/04 10:20:39;;;;;;;2.20;2.00;;;22.60;99.90;;;;;;5067386;28;20139;-65
2023/09/04 10:23:11;;;;;;;3.50;2.28;;;22.60;99.90;;;;;;5072361;28;20400;-65
2023/09/04 10:25:59;;;;;;;2.50;2.30;;;22.80;99.90;;;;;;5063620;28;20067;-65
2023/09/04 10:28:57;;;;;;;2.25;1.83;;;22.90;99.90;;;;;;5055222;28;20048;-66
2023/09/04 10:31:25;;;;;;;4.80;2.70;;;23.00;99.90;;;;;;5042614;28;20052;-66
2023/09/04 10:33:53;;;;;;;2.95;2.25;;;23.10;99.90;;;;;;5057899;28;20482;-65
2023/09/04 10:36:20;;;;;;;3.72;2.40;;;23.10;99.90;;;;;;5053605;28;20052;-66
2023/09/04 10:38:47;;;;;;;2.67;2.42;;;23.00;99.90;;;;;;5063289;28;20058;-65
2023/09/04 10:41:14;;;;;;;;;;;23.00;99.90;;;;;;5071701;28;20055;-66
2023/09/04 10:43:42;;;;;;;4.32;2.40;;;23.10;99.90;;;;;;5063034;28;19921;-66
2023/09/04 10:46:11;;;;;;;4.47;2.40;;;23.10;99.90;;;;;;5068521;28;20054;-66
2023/09/04 10:48:51;;;;;;;3.47;2.22;;;23.10;99.90;;;;;;5066093;28;20059;-65
2023/09/04 10:51:30;;;;;;;2.20;2.00;;;23.10;99.90;;;;;;5050769;28;20131;-66
2023/09/04 10:53:59;;;;;;;5.05;2.13;;;23.10;99.90;;;;;;5054902;28;20098;-66
2023/09/04 10:56:26;;;;;;;2.97;2.13;;;23.20;99.90;;;;;;5068352;28;20058;-66
2023/09/04 10:59:05;;;;;;;5.93;2.40;;;23.20;99.90;;;;;;5051469;28;20442;-65
2023/09/04 11:01:34;;;;;;;5.18;2.85;;;23.20;99.90;;;;;;5054181;28;20048;-66
2023/09/04 11:04:03;;;;;;;4.85;2.08;;;23.10;99.90;;;;;;5069054;28;20425;-66
2023/09/04 11:06:34;;;;;;;4.03;2.13;;;23.20;99.90;;;;;;5061277;28;20044;-66
2023/09/04 11:09:02;;;;;;;3.67;2.13;;;23.20;99.90;;;;;;5056167;28;20504;-66
2023/09/04 11:11:29;;;;;;;6.00;2.30;;;23.30;99.90;;;;;;5055925;28;20548;-66
2023/09/04 11:13:58;;;;;;;4.78;2.25;;;23.30;99.90;;;;;;5065696;28;20049;-66
2023/09/04 11:16:28;;;;;;;4.70;2.47;;;23.30;99.90;;;;;;5055201;28;20397;-66
2023/09/04 11:19:04;;;;;;;5.55;2.72;;;23.40;99.90;;;;;;5051541;28;20371;-65
2023/09/04 11:21:33;;;;;;;4.97;3.33;;;23.50;99.90;;;;;;5065540;28;20127;-66
2023/09/04 11:24:02;;;;;;;3.42;2.38;;;23.50;99.90;;;;;;5062587;28;20036;-65
2023/09/04 11:26:29;;;;;;;3.47;2.08;;;23.60;99.90;;;;;;5059039;28;20040;-66
2023/09/04 11:28:58;;;;;;;5.90;2.58;;;23.60;99.90;;;;;;5051011;28;20037;-66
2023/09/04 11:31:26;;;;;;;4.93;2.30;;;23.60;99.90;;;;;;5060630;28;20044;-65
2023/09/04 11:33:55;;;;;;;2.92;2.03;;;23.60;99.90;;;;;;5050999;28;20040;-66
2023/09/04 11:36:22;;;;;;;5.78;2.30;;;23.60;99.90;;;;;;5059636;28;20043;-66
2023/09/04 11:39:05;;;;;;;3.67;2.28;;;23.70;99.90;;;;;;5062841;28;20490;-66
2023/09/04 11:41:32;;;;;;;3.83;2.22;;;23.70;99.90;;;;;;5069451;28;20037;-66
2023/09/04 11:44:01;;;;;;;;;;;23.70;99.90;;;;;;5055864;28;20029;-66
2023/09/04 11:46:28;;;;;;;;;;;23.70;99.90;;;;;;5052313;28;19921;-66
2023/09/04 11:48:55;;;;;;;4.35;2.20;;;23.70;99.90;;;;;;5060110;28;20373;-66
2023/09/04 11:51:22;;;;;;;2.58;2.00;;;23.70;99.90;;;;;;5055867;28;20113;-66
2023/09/04 11:53:49;;;;;;;3.38;2.20;;;23.70;99.90;;;;;;5059061;28;20041;-66
2023/09/04 11:56:16;;;;;;;3.40;2.03;;;23.70;99.90;;;;;;5052901;28;20055;-66
2023/09/04 11:58:43;;;;;;;2.92;2.63;;;23.70;99.90;;;;;;5054326;28;20043;-66
2023/09/04 12:01:10;;;;;;;3.58;2.70;;;23.70;99.90;;;;;;5062478;28;20036;-65
2023/09/04 12:03:37;;;;;;;3.85;2.30;;;23.70;99.90;;;;;;5063516;28;20037;-66
2023/09/04 12:06:04;;;;;;;2.80;2.42;;;23.70;99.90;;;;;;5056650;28;20044;-65
2023/09/04 12:08:30;;;;;;;2.30;2.08;;;23.80;99.90;;;;;;5059313;28;20470;-66
2023/09/04 12:10:57;;;;;;;2.85;2.20;;;24.00;99.90;;;;;;5062837;28;20035;-66
2023/09/04 12:13:24;;;;;;;3.72;2.30;;;24.00;99.90;;;;;;5061683;28;20033;-66
2023/09/04 12:15:51;;;;;;;4.25;2.50;;;24.00;99.90;;;;;;5052608;28;20041;-66
2023/09/04 12:18:21;;;;;;;4.75;2.13;;;24.00;99.90;;;;;;5050403;28;20043;-66
2023/09/04 12:20:48;;;;;;;4.38;2.65;;;24.00;99.90;;;;;;5042654;28;20470;-66
2023/09/04 12:23:35;;;;;;;3.67;2.38;;;24.00;99.90;;;;;;5054116;28;20045;-66
2023/09/04 12:26:02;;;;;;;2.72;2.17;;;24.00;99.90;;;;;;5065157;28;20512;-66
2023/09/04 12:28:29;;;;;;;3.15;2.22;;;24.10;99.90;;;;;;5060589;28;20401;-66
2023/09/04 12:30:55;;;;;;;3.33;2.40;;;24.10;99.90;;;;;;5061813;28;20146;-66
2023/09/04 12:33:28;;;;;;;6.40;2.63;;;24.20;99.90;;;;;;5059885;28;20474;-66
2023/09/04 12:35:56;;;;;;;2.28;2.08;;;24.30;99.90;;;;;;5061905;28;20048;-66
2023/09/04 12:38:23;;;;;;;3.40;2.05;;;24.20;99.90;;;;;;5062320;28;20048;-66
2023/09/04 12:40:50;;;;;;;4.45;2.50;;;24.20;99.90;;;;;;5054831;28;20494;-66
2023/09/04 12:43:17;;;;;;;4.43;2.55;;;24.20;99.90;;;;;;5069446;28;20489;-66
2023/09/04 12:45:44;;;;;;;2.70;2.45;;;24.20;99.90;;;;;;5062516;28;20075;-66
2023/09/04 12:48:14;;;;;;;2.63;2.40;;;24.20;99.90;;;;;;5054420;28;20458;-66
2023/09/04 12:50:41;;;;;;;6.72;2.35;;;24.20;99.90;;;;;;5055774;28;20084;-66
2023/09/04 12:53:08;;;;;;;;;;;24.20;99.90;;;;;;5054724;28;20478;-66
2023/09/04 12:55:35;;;;;;;6.53;2.60;;;24.20;99.90;;;;;;5055828;28;19928;-66